sensor_id;sensor_type;location;lat;lon;timestamp;pressure;altitude;pressure_sealevel;temperature;humidity
9077;BME280;4574;51.072;17.174;2022-08-19T00:01:56;99427.91;;;25.96;nan
9077;BME280;4574;51.072;17.174;2022-08-19T00:04:28;99432.19;;;25.87;nan
9077;BME280;4574;51.072;17.174;2022-08-19T00:06:57;99427.31;;;25.84;nan
9077;BME280;4574;51.072;17.174;2022-08-19T00:09:27;99424.59;;;25.84;nan
9077;BME280;4574;51.072;17.174;2022-08-19T00:11:56;99417.03;;;25.91;nan
9077;BME280;4574;51.072;17.174;2022-08-19T00:14:26;99402.38;;;25.87;nan
9077;BME280;4574;51.072;17.174;2022-08-19T00:17:00;99402.38;;;25.87;nan
9077;BME280;4574;51.072;17.174;2022-08-19T00:19:30;99396.66;;;25.88;nan
9077;BME280;4574;51.072;17.174;2022-08-19T00:21:59;99398.53;;;25.83;nan
9077;BME280;4574;51.072;17.174;2022-08-19T00:24:27;99383.94;;;25.94;nan
9077;BME280;4574;51.072;17.174;2022-08-19T00:26:56;99384.50;;;25.96;nan
9077;BME280;4574;51.072;17.174;2022-08-19T00:29:45;99379.09;;;26.00;nan
9077;BME280;4574;51.072;17.174;2022-08-19T00:32:19;99374.44;;;25.91;nan
9077;BME280;4574;51.072;17.174;2022-08-19T00:34:49;99369.81;;;25.87;nan
9077;BME280;4574;51.072;17.174;2022-08-19T00:37:20;99370.81;;;25.76;nan
9077;BME280;4574;51.072;17.174;2022-08-19T00:39:49;99374.25;;;25.61;nan
9077;BME280;4574;51.072;17.174;2022-08-19T00:42:20;99366.94;;;25.57;nan
9077;BME280;4574;51.072;17.174;2022-08-19T00:44:49;99366.31;;;25.50;nan
9077;BME280;4574;51.072;17.174;2022-08-19T00:47:19;99378.19;;;25.39;nan
9077;BME280;4574;51.072;17.174;2022-08-19T00:49:50;99370.13;;;25.49;nan
9077;BME280;4574;51.072;17.174;2022-08-19T00:52:23;99372.09;;;25.58;nan
9077;BME280;4574;51.072;17.174;2022-08-19T00:54:52;99373.75;;;25.69;nan
9077;BME280;4574;51.072;17.174;2022-08-19T00:57:27;99382.47;;;25.76;nan
9077;BME280;4574;51.072;17.174;2022-08-19T00:59:58;99394.16;;;25.77;nan
9077;BME280;4574;51.072;17.174;2022-08-19T01:02:31;99398.22;;;25.79;nan
9077;BME280;4574;51.072;17.174;2022-08-19T01:05:02;99394.19;;;25.82;nan
9077;BME280;4574;51.072;17.174;2022-08-19T01:07:33;99373.84;;;25.84;nan
9077;BME280;4574;51.072;17.174;2022-08-19T01:10:06;99373.31;;;25.87;nan
9077;BME280;4574;51.072;17.174;2022-08-19T01:12:35;99381.22;;;25.89;nan
9077;BME280;4574;51.072;17.174;2022-08-19T01:15:05;99386.63;;;25.89;nan
9077;BME280;4574;51.072;17.174;2022-08-19T01:17:38;99377.41;;;25.90;nan
9077;BME280;4574;51.072;17.174;2022-08-19T01:20:10;99360.31;;;25.89;nan
9077;BME280;4574;51.072;17.174;2022-08-19T01:22:43;99351.91;;;25.86;nan
9077;BME280;4574;51.072;17.174;2022-08-19T01:25:13;99326.94;;;25.84;nan
9077;BME280;4574;51.072;17.174;2022-08-19T01:27:44;99328.03;;;25.83;nan
9077;BME280;4574;51.072;17.174;2022-08-19T01:30:17;99324.72;;;25.76;nan
9077;BME280;4574;51.072;17.174;2022-08-19T01:32:47;99320.03;;;25.61;nan
9077;BME280;4574;51.072;17.174;2022-08-19T01:35:16;99329.34;;;25.24;nan
9077;BME280;4574;51.072;17.174;2022-08-19T01:37:49;99324.16;;;25.17;nan
9077;BME280;4574;51.072;17.174;2022-08-19T01:40:19;99320.44;;;24.92;nan
9077;BME280;4574;51.072;17.174;2022-08-19T01:42:48;99322.38;;;24.96;nan
9077;BME280;4574;51.072;17.174;2022-08-19T01:45:18;99325.00;;;24.86;nan
9077;BME280;4574;51.072;17.174;2022-08-19T01:47:47;99319.81;;;24.80;nan
9077;BME280;4574;51.072;17.174;2022-08-19T01:50:21;99326.06;;;24.80;nan
9077;BME280;4574;51.072;17.174;2022-08-19T01:52:51;99316.50;;;24.73;nan
9077;BME280;4574;51.072;17.174;2022-08-19T01:55:32;99316.47;;;24.68;nan
9077;BME280;4574;51.072;17.174;2022-08-19T01:58:02;99315.44;;;24.74;nan
9077;BME280;4574;51.072;17.174;2022-08-19T02:00:33;99308.81;;;24.60;nan
9077;BME280;4574;51.072;17.174;2022-08-19T02:03:02;99312.28;;;24.55;nan
9077;BME280;4574;51.072;17.174;2022-08-19T02:05:30;99309.28;;;24.52;nan
9077;BME280;4574;51.072;17.174;2022-08-19T02:08:00;99318.22;;;24.52;nan
9077;BME280;4574;51.072;17.174;2022-08-19T02:10:28;99326.97;;;24.64;nan
9077;BME280;4574;51.072;17.174;2022-08-19T02:12:57;99320.31;;;24.77;nan
9077;BME280;4574;51.072;17.174;2022-08-19T02:15:25;99319.84;;;24.85;nan
9077;BME280;4574;51.072;17.174;2022-08-19T02:17:54;99307.16;;;24.90;nan
9077;BME280;4574;51.072;17.174;2022-08-19T02:20:22;99304.19;;;24.92;nan
9077;BME280;4574;51.072;17.174;2022-08-19T02:22:51;99296.06;;;24.92;nan
9077;BME280;4574;51.072;17.174;2022-08-19T02:25:21;99300.97;;;25.00;nan
9077;BME280;4574;51.072;17.174;2022-08-19T02:27:49;99298.81;;;25.02;nan
9077;BME280;4574;51.072;17.174;2022-08-19T02:30:18;99300.47;;;25.03;nan
9077;BME280;4574;51.072;17.174;2022-08-19T02:32:47;99303.72;;;25.05;nan
9077;BME280;4574;51.072;17.174;2022-08-19T02:35:16;99296.88;;;24.92;nan
9077;BME280;4574;51.072;17.174;2022-08-19T02:37:44;99294.94;;;24.88;nan
9077;BME280;4574;51.072;17.174;2022-08-19T02:40:32;99285.16;;;24.82;nan
9077;BME280;4574;51.072;17.174;2022-08-19T02:43:01;99283.28;;;24.82;nan
9077;BME280;4574;51.072;17.174;2022-08-19T02:45:32;99291.63;;;24.76;nan
9077;BME280;4574;51.072;17.174;2022-08-19T02:48:01;99289.94;;;24.70;nan
9077;BME280;4574;51.072;17.174;2022-08-19T02:50:31;99290.16;;;24.63;nan
9077;BME280;4574;51.072;17.174;2022-08-19T02:52:59;99300.63;;;24.50;nan
9077;BME280;4574;51.072;17.174;2022-08-19T02:55:28;99295.38;;;24.44;nan
9077;BME280;4574;51.072;17.174;2022-08-19T02:57:58;99286.41;;;24.38;nan
9077;BME280;4574;51.072;17.174;2022-08-19T03:00:27;99287.50;;;24.37;nan
9077;BME280;4574;51.072;17.174;2022-08-19T03:02:55;99277.50;;;24.43;nan
9077;BME280;4574;51.072;17.174;2022-08-19T03:05:24;99280.03;;;24.49;nan
9077;BME280;4574;51.072;17.174;2022-08-19T03:08:12;99273.22;;;24.47;nan
9077;BME280;4574;51.072;17.174;2022-08-19T03:10:43;99284.16;;;24.56;nan
9077;BME280;4574;51.072;17.174;2022-08-19T03:13:16;99286.28;;;24.54;nan
9077;BME280;4574;51.072;17.174;2022-08-19T03:15:46;99294.97;;;24.56;nan
9077;BME280;4574;51.072;17.174;2022-08-19T03:18:15;99320.16;;;24.57;nan
9077;BME280;4574;51.072;17.174;2022-08-19T03:20:45;99325.03;;;24.55;nan
9077;BME280;4574;51.072;17.174;2022-08-19T03:23:15;99330.44;;;24.55;nan
9077;BME280;4574;51.072;17.174;2022-08-19T03:25:45;99331.50;;;24.54;nan
9077;BME280;4574;51.072;17.174;2022-08-19T03:28:25;99320.91;;;24.52;nan
9077;BME280;4574;51.072;17.174;2022-08-19T03:30:57;99318.13;;;24.48;nan
9077;BME280;4574;51.072;17.174;2022-08-19T03:33:28;99313.75;;;24.42;nan
9077;BME280;4574;51.072;17.174;2022-08-19T03:36:06;99324.91;;;24.45;nan
9077;BME280;4574;51.072;17.174;2022-08-19T03:38:37;99327.03;;;24.43;nan
9077;BME280;4574;51.072;17.174;2022-08-19T03:41:07;99324.59;;;24.42;nan
9077;BME280;4574;51.072;17.174;2022-08-19T03:43:40;99322.66;;;24.37;nan
9077;BME280;4574;51.072;17.174;2022-08-19T03:46:10;99323.19;;;24.34;nan
9077;BME280;4574;51.072;17.174;2022-08-19T03:48:40;99318.84;;;24.33;nan
9077;BME280;4574;51.072;17.174;2022-08-19T03:51:16;99317.19;;;24.32;nan
9077;BME280;4574;51.072;17.174;2022-08-19T03:53:46;99330.41;;;24.29;nan
9077;BME280;4574;51.072;17.174;2022-08-19T03:56:15;99323.38;;;24.28;nan
9077;BME280;4574;51.072;17.174;2022-08-19T03:58:45;99330.13;;;24.25;nan
9077;BME280;4574;51.072;17.174;2022-08-19T04:01:16;99336.00;;;24.17;nan
9077;BME280;4574;51.072;17.174;2022-08-19T04:03:46;99335.94;;;24.12;nan
9077;BME280;4574;51.072;17.174;2022-08-19T04:06:18;99348.91;;;24.10;nan
9077;BME280;4574;51.072;17.174;2022-08-19T04:08:50;99355.06;;;24.06;nan
9077;BME280;4574;51.072;17.174;2022-08-19T04:11:22;99352.50;;;23.94;nan
9077;BME280;4574;51.072;17.174;2022-08-19T04:14:11;99349.31;;;23.97;nan
9077;BME280;4574;51.072;17.174;2022-08-19T04:16:41;99343.91;;;23.97;nan
9077;BME280;4574;51.072;17.174;2022-08-19T04:19:12;99345.66;;;23.87;nan
9077;BME280;4574;51.072;17.174;2022-08-19T04:21:43;99355.38;;;23.66;nan
9077;BME280;4574;51.072;17.174;2022-08-19T04:24:13;99355.13;;;23.68;nan
9077;BME280;4574;51.072;17.174;2022-08-19T04:26:41;99356.38;;;23.60;nan
9077;BME280;4574;51.072;17.174;2022-08-19T04:29:18;99354.94;;;23.53;nan
9077;BME280;4574;51.072;17.174;2022-08-19T04:31:49;99358.69;;;23.52;nan
9077;BME280;4574;51.072;17.174;2022-08-19T04:34:19;99351.41;;;23.52;nan
9077;BME280;4574;51.072;17.174;2022-08-19T04:36:50;99351.09;;;23.49;nan
9077;BME280;4574;51.072;17.174;2022-08-19T04:39:21;99351.25;;;23.42;nan
9077;BME280;4574;51.072;17.174;2022-08-19T04:42:10;99345.38;;;23.45;nan
9077;BME280;4574;51.072;17.174;2022-08-19T04:44:58;99349.56;;;23.36;nan
9077;BME280;4574;51.072;17.174;2022-08-19T04:47:26;99346.63;;;23.38;nan
9077;BME280;4574;51.072;17.174;2022-08-19T04:50:14;99351.84;;;23.44;nan
9077;BME280;4574;51.072;17.174;2022-08-19T04:52:43;99346.50;;;23.49;nan
9077;BME280;4574;51.072;17.174;2022-08-19T04:55:12;99354.88;;;23.48;nan
9077;BME280;4574;51.072;17.174;2022-08-19T04:57:41;99349.75;;;23.51;nan
9077;BME280;4574;51.072;17.174;2022-08-19T05:00:12;99347.34;;;23.50;nan
9077;BME280;4574;51.072;17.174;2022-08-19T05:02:40;99334.06;;;23.48;nan
9077;BME280;4574;51.072;17.174;2022-08-19T05:05:09;99326.72;;;23.44;nan
9077;BME280;4574;51.072;17.174;2022-08-19T05:07:37;99329.66;;;23.42;nan
9077;BME280;4574;51.072;17.174;2022-08-19T05:10:08;99333.50;;;23.46;nan
9077;BME280;4574;51.072;17.174;2022-08-19T05:12:37;99341.94;;;23.50;nan
9077;BME280;4574;51.072;17.174;2022-08-19T05:15:07;99338.97;;;23.51;nan
9077;BME280;4574;51.072;17.174;2022-08-19T05:17:37;99330.84;;;23.51;nan
9077;BME280;4574;51.072;17.174;2022-08-19T05:20:26;99343.84;;;23.54;nan
9077;BME280;4574;51.072;17.174;2022-08-19T05:23:12;99336.31;;;23.56;nan
9077;BME280;4574;51.072;17.174;2022-08-19T05:25:47;99339.59;;;23.58;nan
9077;BME280;4574;51.072;17.174;2022-08-19T05:28:17;99336.38;;;23.61;nan
9077;BME280;4574;51.072;17.174;2022-08-19T05:30:46;99336.16;;;23.63;nan
9077;BME280;4574;51.072;17.174;2022-08-19T05:33:16;99334.81;;;23.65;nan
9077;BME280;4574;51.072;17.174;2022-08-19T05:35:45;99336.78;;;23.70;nan
9077;BME280;4574;51.072;17.174;2022-08-19T05:38:15;99341.09;;;23.71;nan
9077;BME280;4574;51.072;17.174;2022-08-19T05:40:44;99348.94;;;23.72;nan
9077;BME280;4574;51.072;17.174;2022-08-19T05:43:16;99355.59;;;23.81;nan
9077;BME280;4574;51.072;17.174;2022-08-19T05:45:44;99356.75;;;23.85;nan
9077;BME280;4574;51.072;17.174;2022-08-19T05:48:13;99352.97;;;23.86;nan
9077;BME280;4574;51.072;17.174;2022-08-19T05:50:46;99344.28;;;23.84;nan
9077;BME280;4574;51.072;17.174;2022-08-19T05:53:17;99350.81;;;23.88;nan
9077;BME280;4574;51.072;17.174;2022-08-19T05:55:45;99344.91;;;23.91;nan
9077;BME280;4574;51.072;17.174;2022-08-19T05:58:13;99342.25;;;23.96;nan
9077;BME280;4574;51.072;17.174;2022-08-19T06:00:43;99338.72;;;23.96;nan
9077;BME280;4574;51.072;17.174;2022-08-19T06:03:12;99354.44;;;23.99;nan
9077;BME280;4574;51.072;17.174;2022-08-19T06:05:41;99346.66;;;24.02;nan
9077;BME280;4574;51.072;17.174;2022-08-19T06:08:19;99355.63;;;24.08;nan
9077;BME280;4574;51.072;17.174;2022-08-19T06:11:12;99360.03;;;24.14;nan
9077;BME280;4574;51.072;17.174;2022-08-19T06:13:41;99367.94;;;24.20;nan
9077;BME280;4574;51.072;17.174;2022-08-19T06:16:10;99385.31;;;24.24;nan
9077;BME280;4574;51.072;17.174;2022-08-19T06:18:39;99393.19;;;24.31;nan
9077;BME280;4574;51.072;17.174;2022-08-19T06:21:07;99396.78;;;24.36;nan
9077;BME280;4574;51.072;17.174;2022-08-19T06:23:37;99401.97;;;24.43;nan
9077;BME280;4574;51.072;17.174;2022-08-19T06:26:06;99401.22;;;24.47;nan
9077;BME280;4574;51.072;17.174;2022-08-19T06:28:34;99413.78;;;24.53;nan
9077;BME280;4574;51.072;17.174;2022-08-19T06:31:06;99408.41;;;24.58;nan
9077;BME280;4574;51.072;17.174;2022-08-19T06:33:35;99400.91;;;24.65;nan
9077;BME280;4574;51.072;17.174;2022-08-19T06:36:04;99406.13;;;24.71;nan
9077;BME280;4574;51.072;17.174;2022-08-19T06:38:32;99415.09;;;24.77;nan
9077;BME280;4574;51.072;17.174;2022-08-19T06:41:04;99425.44;;;24.85;nan
9077;BME280;4574;51.072;17.174;2022-08-19T06:43:33;99428.75;;;24.92;nan
9077;BME280;4574;51.072;17.174;2022-08-19T06:46:04;99434.25;;;25.02;nan
9077;BME280;4574;51.072;17.174;2022-08-19T06:48:37;99454.38;;;25.11;nan
9077;BME280;4574;51.072;17.174;2022-08-19T06:51:11;99457.72;;;25.18;nan
9077;BME280;4574;51.072;17.174;2022-08-19T06:53:45;99456.13;;;25.22;nan
9077;BME280;4574;51.072;17.174;2022-08-19T06:56:17;99463.78;;;25.30;nan
9077;BME280;4574;51.072;17.174;2022-08-19T06:58:47;99463.56;;;25.36;nan
9077;BME280;4574;51.072;17.174;2022-08-19T07:01:20;99461.69;;;25.42;nan
9077;BME280;4574;51.072;17.174;2022-08-19T07:03:48;99464.75;;;25.50;nan
9077;BME280;4574;51.072;17.174;2022-08-19T07:06:18;99469.44;;;25.60;nan
9077;BME280;4574;51.072;17.174;2022-08-19T07:09:10;99473.28;;;25.69;nan
9077;BME280;4574;51.072;17.174;2022-08-19T07:11:43;99466.81;;;25.75;nan
9077;BME280;4574;51.072;17.174;2022-08-19T07:14:13;99467.66;;;25.80;nan
9077;BME280;4574;51.072;17.174;2022-08-19T07:16:46;99464.44;;;25.83;nan
9077;BME280;4574;51.072;17.174;2022-08-19T07:19:16;99470.19;;;25.92;nan
9077;BME280;4574;51.072;17.174;2022-08-19T07:21:46;99477.56;;;26.01;nan
9077;BME280;4574;51.072;17.174;2022-08-19T07:24:16;99468.34;;;26.02;nan
9077;BME280;4574;51.072;17.174;2022-08-19T07:26:46;99481.16;;;26.16;nan
9077;BME280;4574;51.072;17.174;2022-08-19T07:29:18;99488.28;;;26.27;nan
9077;BME280;4574;51.072;17.174;2022-08-19T07:31:51;99511.66;;;26.38;nan
9077;BME280;4574;51.072;17.174;2022-08-19T07:34:23;99497.59;;;26.46;nan
9077;BME280;4574;51.072;17.174;2022-08-19T07:36:52;99506.84;;;26.55;nan
9077;BME280;4574;51.072;17.174;2022-08-19T07:39:24;99500.38;;;26.71;nan
9077;BME280;4574;51.072;17.174;2022-08-19T07:41:55;99502.84;;;26.73;nan
9077;BME280;4574;51.072;17.174;2022-08-19T07:44:24;99502.34;;;26.86;nan
9077;BME280;4574;51.072;17.174;2022-08-19T07:46:56;99496.09;;;26.95;nan
9077;BME280;4574;51.072;17.174;2022-08-19T07:49:26;99501.53;;;27.05;nan
9077;BME280;4574;51.072;17.174;2022-08-19T07:51:57;99494.78;;;27.23;nan
9077;BME280;4574;51.072;17.174;2022-08-19T07:54:28;99485.84;;;27.32;nan
9077;BME280;4574;51.072;17.174;2022-08-19T07:56:58;99484.75;;;27.38;nan
9077;BME280;4574;51.072;17.174;2022-08-19T07:59:27;99485.81;;;27.52;nan
9077;BME280;4574;51.072;17.174;2022-08-19T08:01:57;99494.22;;;27.60;nan
9077;BME280;4574;51.072;17.174;2022-08-19T08:04:27;99497.25;;;27.69;nan
9077;BME280;4574;51.072;17.174;2022-08-19T08:07:14;99497.25;;;27.74;nan
9077;BME280;4574;51.072;17.174;2022-08-19T08:10:00;99508.66;;;27.81;nan
9077;BME280;4574;51.072;17.174;2022-08-19T08:12:34;99511.63;;;27.84;nan
9077;BME280;4574;51.072;17.174;2022-08-19T08:15:08;99520.63;;;27.90;nan
9077;BME280;4574;51.072;17.174;2022-08-19T08:17:38;99520.84;;;27.98;nan
9077;BME280;4574;51.072;17.174;2022-08-19T08:20:16;99518.34;;;28.17;nan
9077;BME280;4574;51.072;17.174;2022-08-19T08:22:45;99528.69;;;28.25;nan
9077;BME280;4574;51.072;17.174;2022-08-19T08:25:32;99539.31;;;28.31;nan
9077;BME280;4574;51.072;17.174;2022-08-19T08:28:04;99533.00;;;28.41;nan
9077;BME280;4574;51.072;17.174;2022-08-19T08:30:34;99531.34;;;28.50;nan
9077;BME280;4574;51.072;17.174;2022-08-19T08:33:04;99525.59;;;28.56;nan
9077;BME280;4574;51.072;17.174;2022-08-19T08:35:33;99521.97;;;28.71;nan
9077;BME280;4574;51.072;17.174;2022-08-19T08:38:02;99520.28;;;28.79;nan
9077;BME280;4574;51.072;17.174;2022-08-19T08:40:39;99513.69;;;28.95;nan
9077;BME280;4574;51.072;17.174;2022-08-19T08:43:20;99517.38;;;29.14;nan
9077;BME280;4574;51.072;17.174;2022-08-19T08:45:55;99517.22;;;29.34;nan
9077;BME280;4574;51.072;17.174;2022-08-19T08:48:30;99516.50;;;29.57;nan
9077;BME280;4574;51.072;17.174;2022-08-19T08:51:03;99513.38;;;29.69;nan
9077;BME280;4574;51.072;17.174;2022-08-19T08:53:34;99498.00;;;29.83;nan
9077;BME280;4574;51.072;17.174;2022-08-19T08:56:09;99513.44;;;29.92;nan
9077;BME280;4574;51.072;17.174;2022-08-19T08:58:49;99511.19;;;29.99;nan
9077;BME280;4574;51.072;17.174;2022-08-19T09:01:20;99503.16;;;30.13;nan
9077;BME280;4574;51.072;17.174;2022-08-19T09:03:49;99499.88;;;30.34;nan
9077;BME280;4574;51.072;17.174;2022-08-19T09:06:24;99490.22;;;30.41;nan
9077;BME280;4574;51.072;17.174;2022-08-19T09:09:02;99485.81;;;30.45;nan
9077;BME280;4574;51.072;17.174;2022-08-19T09:11:47;99481.13;;;30.46;nan
9077;BME280;4574;51.072;17.174;2022-08-19T09:14:37;99480.56;;;30.49;nan
9077;BME280;4574;51.072;17.174;2022-08-19T09:17:18;99495.22;;;30.58;nan
9077;BME280;4574;51.072;17.174;2022-08-19T09:19:53;99515.34;;;30.67;nan
9077;BME280;4574;51.072;17.174;2022-08-19T09:22:22;99527.78;;;30.78;nan
9077;BME280;4574;51.072;17.174;2022-08-19T09:24:53;99513.19;;;30.82;nan
9077;BME280;4574;51.072;17.174;2022-08-19T09:27:22;99518.31;;;30.89;nan
9077;BME280;4574;51.072;17.174;2022-08-19T09:30:12;99516.41;;;31.08;nan
9077;BME280;4574;51.072;17.174;2022-08-19T09:32:42;99508.41;;;31.30;nan
9077;BME280;4574;51.072;17.174;2022-08-19T09:35:11;99503.38;;;31.37;nan
9077;BME280;4574;51.072;17.174;2022-08-19T09:37:41;99501.56;;;31.46;nan
9077;BME280;4574;51.072;17.174;2022-08-19T09:40:13;99515.31;;;31.59;nan
9077;BME280;4574;51.072;17.174;2022-08-19T09:42:42;99497.22;;;31.76;nan
9077;BME280;4574;51.072;17.174;2022-08-19T09:45:19;99496.84;;;31.96;nan
9077;BME280;4574;51.072;17.174;2022-08-19T09:47:50;99498.31;;;32.21;nan
9077;BME280;4574;51.072;17.174;2022-08-19T09:50:22;99491.81;;;32.30;nan
9077;BME280;4574;51.072;17.174;2022-08-19T09:52:51;99500.25;;;32.47;nan
9077;BME280;4574;51.072;17.174;2022-08-19T09:55:25;99496.47;;;32.70;nan
9077;BME280;4574;51.072;17.174;2022-08-19T09:57:58;99500.28;;;32.83;nan
9077;BME280;4574;51.072;17.174;2022-08-19T10:00:29;99499.44;;;32.96;nan
9077;BME280;4574;51.072;17.174;2022-08-19T10:02:57;99506.13;;;33.03;nan
9077;BME280;4574;51.072;17.174;2022-08-19T10:05:26;99504.91;;;33.09;nan
9077;BME280;4574;51.072;17.174;2022-08-19T10:08:15;99502.19;;;33.31;nan
9077;BME280;4574;51.072;17.174;2022-08-19T10:10:45;99504.53;;;33.37;nan
9077;BME280;4574;51.072;17.174;2022-08-19T10:13:15;99499.69;;;33.43;nan
9077;BME280;4574;51.072;17.174;2022-08-19T10:15:47;99501.81;;;33.46;nan
9077;BME280;4574;51.072;17.174;2022-08-19T10:18:19;99497.56;;;33.62;nan
9077;BME280;4574;51.072;17.174;2022-08-19T10:20:49;99499.31;;;33.80;nan
9077;BME280;4574;51.072;17.174;2022-08-19T10:23:20;99504.03;;;33.88;nan
9077;BME280;4574;51.072;17.174;2022-08-19T10:25:49;99500.34;;;33.92;nan
9077;BME280;4574;51.072;17.174;2022-08-19T10:28:18;99497.19;;;34.07;nan
9077;BME280;4574;51.072;17.174;2022-08-19T10:30:48;99501.00;;;34.20;nan
9077;BME280;4574;51.072;17.174;2022-08-19T10:33:16;99493.25;;;34.22;nan
9077;BME280;4574;51.072;17.174;2022-08-19T10:36:08;99488.09;;;34.29;nan
9077;BME280;4574;51.072;17.174;2022-08-19T10:38:37;99486.63;;;34.31;nan
9077;BME280;4574;51.072;17.174;2022-08-19T10:41:18;99487.59;;;34.27;nan
9077;BME280;4574;51.072;17.174;2022-08-19T10:43:51;99474.00;;;34.22;nan
9077;BME280;4574;51.072;17.174;2022-08-19T10:46:24;99483.44;;;34.38;nan
9077;BME280;4574;51.072;17.174;2022-08-19T10:48:54;99491.34;;;34.31;nan
9077;BME280;4574;51.072;17.174;2022-08-19T10:51:22;99495.72;;;34.40;nan
9077;BME280;4574;51.072;17.174;2022-08-19T10:54:14;99491.69;;;34.46;nan
9077;BME280;4574;51.072;17.174;2022-08-19T10:56:43;99495.56;;;34.37;nan
9077;BME280;4574;51.072;17.174;2022-08-19T10:59:22;99492.66;;;34.42;nan
9077;BME280;4574;51.072;17.174;2022-08-19T11:01:58;99497.34;;;34.41;nan
9077;BME280;4574;51.072;17.174;2022-08-19T11:04:27;99493.69;;;34.71;nan
9077;BME280;4574;51.072;17.174;2022-08-19T11:06:56;99499.59;;;34.95;nan
9077;BME280;4574;51.072;17.174;2022-08-19T11:09:25;99496.31;;;34.84;nan
9077;BME280;4574;51.072;17.174;2022-08-19T11:12:00;99489.38;;;34.95;nan
9077;BME280;4574;51.072;17.174;2022-08-19T11:14:31;99493.28;;;35.11;nan
9077;BME280;4574;51.072;17.174;2022-08-19T11:17:03;99492.47;;;35.11;nan
9077;BME280;4574;51.072;17.174;2022-08-19T11:19:32;99500.06;;;35.22;nan
9077;BME280;4574;51.072;17.174;2022-08-19T11:22:00;99498.97;;;35.15;nan
9077;BME280;4574;51.072;17.174;2022-08-19T11:24:30;99493.44;;;35.32;nan
9077;BME280;4574;51.072;17.174;2022-08-19T11:27:04;99497.13;;;35.44;nan
9077;BME280;4574;51.072;17.174;2022-08-19T11:29:35;99499.53;;;35.54;nan
9077;BME280;4574;51.072;17.174;2022-08-19T11:32:07;99496.00;;;35.54;nan
9077;BME280;4574;51.072;17.174;2022-08-19T11:34:37;99491.63;;;35.44;nan
9077;BME280;4574;51.072;17.174;2022-08-19T11:37:06;99496.81;;;35.37;nan
9077;BME280;4574;51.072;17.174;2022-08-19T11:39:36;99503.00;;;35.26;nan
9077;BME280;4574;51.072;17.174;2022-08-19T11:42:06;99508.16;;;35.27;nan
9077;BME280;4574;51.072;17.174;2022-08-19T11:44:55;99510.75;;;35.32;nan
9077;BME280;4574;51.072;17.174;2022-08-19T11:47:25;99512.22;;;35.21;nan
9077;BME280;4574;51.072;17.174;2022-08-19T11:49:54;99517.22;;;35.02;nan
9077;BME280;4574;51.072;17.174;2022-08-19T11:52:22;99517.34;;;34.80;nan
9077;BME280;4574;51.072;17.174;2022-08-19T11:54:51;99519.91;;;34.77;nan
9077;BME280;4574;51.072;17.174;2022-08-19T11:57:19;99517.34;;;34.80;nan
9077;BME280;4574;51.072;17.174;2022-08-19T11:59:48;99512.03;;;34.92;nan
9077;BME280;4574;51.072;17.174;2022-08-19T12:02:17;99509.44;;;35.04;nan
9077;BME280;4574;51.072;17.174;2022-08-19T12:04:47;99504.28;;;35.28;nan
9077;BME280;4574;51.072;17.174;2022-08-19T12:07:16;99503.63;;;35.31;nan
9077;BME280;4574;51.072;17.174;2022-08-19T12:09:44;99497.63;;;35.29;nan
9077;BME280;4574;51.072;17.174;2022-08-19T12:12:14;99497.34;;;35.31;nan
9077;BME280;4574;51.072;17.174;2022-08-19T12:14:43;99495.84;;;35.50;nan
9077;BME280;4574;51.072;17.174;2022-08-19T12:17:13;99492.75;;;35.69;nan
9077;BME280;4574;51.072;17.174;2022-08-19T12:19:42;99486.41;;;35.85;nan
9077;BME280;4574;51.072;17.174;2022-08-19T12:22:12;99490.00;;;35.77;nan
9077;BME280;4574;51.072;17.174;2022-08-19T12:24:41;99485.13;;;35.74;nan
9077;BME280;4574;51.072;17.174;2022-08-19T12:27:10;99491.13;;;35.68;nan
9077;BME280;4574;51.072;17.174;2022-08-19T12:29:38;99499.06;;;35.69;nan
9077;BME280;4574;51.072;17.174;2022-08-19T12:32:08;99499.22;;;35.73;nan
9077;BME280;4574;51.072;17.174;2022-08-19T12:34:37;99497.31;;;35.65;nan
9077;BME280;4574;51.072;17.174;2022-08-19T12:37:06;99501.66;;;35.74;nan
9077;BME280;4574;51.072;17.174;2022-08-19T12:39:38;99489.63;;;35.87;nan
9077;BME280;4574;51.072;17.174;2022-08-19T12:42:07;99490.94;;;35.81;nan
9077;BME280;4574;51.072;17.174;2022-08-19T12:44:37;99501.78;;;35.86;nan
9077;BME280;4574;51.072;17.174;2022-08-19T12:47:08;99500.47;;;35.92;nan
9077;BME280;4574;51.072;17.174;2022-08-19T12:49:37;99495.94;;;35.96;nan
9077;BME280;4574;51.072;17.174;2022-08-19T12:52:21;99493.81;;;35.93;nan
9077;BME280;4574;51.072;17.174;2022-08-19T12:54:51;99496.59;;;35.85;nan
9077;BME280;4574;51.072;17.174;2022-08-19T12:57:22;99500.50;;;35.84;nan
9077;BME280;4574;51.072;17.174;2022-08-19T12:59:58;99503.88;;;35.89;nan
9077;BME280;4574;51.072;17.174;2022-08-19T13:02:26;99496.59;;;35.93;nan
9077;BME280;4574;51.072;17.174;2022-08-19T13:04:55;99506.75;;;36.01;nan
9077;BME280;4574;51.072;17.174;2022-08-19T13:07:24;99499.16;;;35.90;nan
9077;BME280;4574;51.072;17.174;2022-08-19T13:09:54;99490.88;;;35.98;nan
9077;BME280;4574;51.072;17.174;2022-08-19T13:12:23;99479.16;;;36.18;nan
9077;BME280;4574;51.072;17.174;2022-08-19T13:14:54;99490.56;;;36.37;nan
9077;BME280;4574;51.072;17.174;2022-08-19T13:17:23;99477.56;;;36.37;nan
9077;BME280;4574;51.072;17.174;2022-08-19T13:19:51;99477.06;;;36.44;nan
9077;BME280;4574;51.072;17.174;2022-08-19T13:22:20;99478.69;;;36.45;nan
9077;BME280;4574;51.072;17.174;2022-08-19T13:24:48;99483.72;;;36.43;nan
9077;BME280;4574;51.072;17.174;2022-08-19T13:27:18;99485.06;;;36.37;nan
9077;BME280;4574;51.072;17.174;2022-08-19T13:29:47;99484.22;;;36.36;nan
9077;BME280;4574;51.072;17.174;2022-08-19T13:32:32;99478.22;;;36.43;nan
9077;BME280;4574;51.072;17.174;2022-08-19T13:35:19;99474.91;;;36.49;nan
9077;BME280;4574;51.072;17.174;2022-08-19T13:37:48;99478.88;;;36.69;nan
9077;BME280;4574;51.072;17.174;2022-08-19T13:40:18;99477.25;;;36.68;nan
9077;BME280;4574;51.072;17.174;2022-08-19T13:42:52;99475.56;;;36.46;nan
9077;BME280;4574;51.072;17.174;2022-08-19T13:45:22;99471.59;;;36.35;nan
9077;BME280;4574;51.072;17.174;2022-08-19T13:47:54;99482.09;;;36.13;nan
9077;BME280;4574;51.072;17.174;2022-08-19T13:50:27;99478.53;;;36.04;nan
9077;BME280;4574;51.072;17.174;2022-08-19T13:52:56;99489.81;;;35.82;nan
9077;BME280;4574;51.072;17.174;2022-08-19T13:55:25;99483.53;;;35.65;nan
9077;BME280;4574;51.072;17.174;2022-08-19T13:57:56;99484.19;;;35.62;nan